Time;durP1;ratioP1;P1;durP2;ratioP2;P2;SDS_P1;SDS_P2;PMS_P1;PMS_P2;Temp;Humidity;BMP_temperature;BMP_pressure;BME280_temperature;BME280_humidity;BME280_pressure;Samples;Min_cycle;Max_cycle;Signal;HPM_P1;HPM_P2
2021/05/29 00:00:38;;;;;;;22.60;17.58;;;;;;;;;;2057696;28;20636;-55
2021/05/29 00:01:38;;;;;;;21.17;17.17;;;;;;;;;;2057859;28;20541;-58
2021/05/29 00:02:39;;;;;;;22.42;16.15;;;;;;;;;;2058198;28;20232;-59
2021/05/29 00:03:39;;;;;;;24.65;16.48;;;;;;;;;;2057003;28;20197;-56
2021/05/29 00:04:40;;;;;;;22.92;17.30;;;;;;;;;;2057955;28;20174;-58
2021/05/29 00:05:40;;;;;;;27.60;18.67;;;;;;;;;;2057008;28;20174;-59
2021/05/29 00:06:40;;;;;;;26.58;19.45;;;;;;;;;;2052909;28;20182;-59
2021/05/29 00:07:41;;;;;;;27.75;19.73;;;;;;;;;;2057417;28;20190;-57
2021/05/29 00:08:41;;;;;;;32.55;21.50;;;;;;;;;;2055659;28;20187;-54
2021/05/29 00:09:41;;;;;;;29.45;21.30;;;;;;;;;;2057553;28;20181;-56
2021/05/29 00:10:43;;;;;;;29.90;21.67;;;;;;;;;;2057744;28;20230;-55
2021/05/29 00:11:43;;;;;;;36.35;22.80;;;;;;;;;;2057913;28;20186;-57
2021/05/29 00:12:44;;;;;;;33.80;21.88;;;;;;;;;;2056497;28;20658;-55
2021/05/29 00:13:44;;;;;;;32.05;21.95;;;;;;;;;;2058070;28;20217;-57
2021/05/29 00:14:47;;;;;;;29.13;21.23;;;;;;;;;;2057869;28;20543;-59
2021/05/29 00:15:48;;;;;;;30.38;20.58;;;;;;;;;;2057474;28;20181;-56
2021/05/29 00:16:49;;;;;;;28.48;19.30;;;;;;;;;;2058092;28;20681;-57
2021/05/29 00:17:49;;;;;;;28.48;21.05;;;;;;;;;;2058203;28;20270;-56
2021/05/29 00:18:49;;;;;;;30.30;20.40;;;;;;;;;;2057449;28;20564;-57
2021/05/29 00:19:50;;;;;;;27.60;20.10;;;;;;;;;;2054230;28;20604;-56
2021/05/29 00:20:50;;;;;;;25.95;18.40;;;;;;;;;;2055528;28;20179;-59
2021/05/29 00:21:51;;;;;;;27.25;19.17;;;;;;;;;;2065643;28;20179;-60
2021/05/29 00:22:51;;;;;;;26.38;19.02;;;;;;;;;;2063583;28;20189;-54
2021/05/29 00:23:51;;;;;;;26.45;18.77;;;;;;;;;;2059344;28;20190;-57
2021/05/29 00:24:51;;;;;;;23.35;16.95;;;;;;;;;;2058492;28;20170;-55
2021/05/29 00:25:52;;;;;;;24.70;16.88;;;;;;;;;;2056834;28;20187;-57
2021/05/29 00:26:52;;;;;;;24.65;18.55;;;;;;;;;;2058323;28;20174;-56
2021/05/29 00:27:53;;;;;;;21.58;16.80;;;;;;;;;;2055728;28;20201;-57
2021/05/29 00:28:53;;;;;;;25.75;17.30;;;;;;;;;;2057381;28;20202;-58
2021/05/29 00:29:53;;;;;;;21.15;16.75;;;;;;;;;;2059539;28;20185;-58
2021/05/29 00:30:53;;;;;;;20.45;17.17;;;;;;;;;;2057724;28;20603;-55
2021/05/29 00:31:54;;;;;;;23.92;16.70;;;;;;;;;;2048440;28;20203;-58
2021/05/29 00:32:54;;;;;;;25.70;16.88;;;;;;;;;;2048994;29;20659;-57
2021/05/29 00:33:55;;;;;;;21.55;15.55;;;;;;;;;;2057076;28;20179;-56
2021/05/29 00:34:55;;;;;;;21.45;16.55;;;;;;;;;;2057412;28;20253;-56
2021/05/29 00:35:55;;;;;;;20.85;15.30;;;;;;;;;;2054850;28;20698;-59
2021/05/29 00:36:56;;;;;;;21.30;14.85;;;;;;;;;;2056477;28;20584;-58
2021/05/29 00:37:56;;;;;;;21.38;15.85;;;;;;;;;;2056379;28;20178;-59
2021/05/29 00:38:56;;;;;;;20.65;15.20;;;;;;;;;;2056727;28;20260;-58
2021/05/29 00:39:56;;;;;;;19.83;16.35;;;;;;;;;;2057769;28;20169;-57
2021/05/29 00:40:57;;;;;;;22.77;15.23;;;;;;;;;;2057385;28;20163;-57
2021/05/29 00:41:57;;;;;;;20.02;15.50;;;;;;;;;;2056520;28;20218;-55
2021/05/29 00:42:57;;;;;;;19.13;14.32;;;;;;;;;;2056488;28;20170;-57
2021/05/29 00:43:58;;;;;;;19.17;15.32;;;;;;;;;;2057693;28;20321;-56
2021/05/29 00:44:58;;;;;;;19.10;14.57;;;;;;;;;;2057170;28;20178;-58
2021/05/29 00:45:59;;;;;;;18.80;14.70;;;;;;;;;;2056695;28;20253;-59
2021/05/29 00:46:59;;;;;;;17.92;15.95;;;;;;;;;;2054815;28;20903;-57
2021/05/29 00:48:00;;;;;;;21.00;15.32;;;;;;;;;;2055295;28;20170;-59
2021/05/29 00:49:01;;;;;;;21.85;15.93;;;;;;;;;;2052619;28;20171;-57
2021/05/29 00:50:05;;;;;;;21.58;15.68;;;;;;;;;;2054778;28;20235;-59
2021/05/29 00:51:06;;;;;;;22.02;15.70;;;;;;;;;;2052245;28;20171;-58
2021/05/29 00:52:06;;;;;;;19.77;14.85;;;;;;;;;;2056075;28;20162;-56
2021/05/29 00:53:06;;;;;;;20.77;16.33;;;;;;;;;;2057148;28;20566;-60
2021/05/29 00:54:09;;;;;;;25.58;19.42;;;;;;;;;;2057578;28;20198;-57
2021/05/29 00:55:11;;;;;;;19.88;17.77;;;;;;;;;;2048561;29;20258;-58
2021/05/29 00:56:11;;;;;;;22.63;16.60;;;;;;;;;;2041763;29;20187;-58
2021/05/29 00:57:12;;;;;;;19.65;15.98;;;;;;;;;;2048489;29;20266;-56
2021/05/29 00:58:12;;;;;;;18.02;15.80;;;;;;;;;;2057683;28;20572;-57
2021/05/29 00:59:13;;;;;;;19.92;15.27;;;;;;;;;;2055130;28;20782;-58
2021/05/29 01:00:16;;;;;;;20.73;15.95;;;;;;;;;;2056124;28;20178;-58
2021/05/29 01:01:16;;;;;;;22.35;17.02;;;;;;;;;;2057287;28;20175;-58
2021/05/29 01:02:17;;;;;;;23.60;16.48;;;;;;;;;;2057377;28;20173;-56
2021/05/29 01:03:17;;;;;;;23.67;17.20;;;;;;;;;;2056504;28;20276;-59
2021/05/29 01:04:17;;;;;;;22.58;18.75;;;;;;;;;;2055529;28;20178;-57
2021/05/29 01:05:18;;;;;;;19.83;16.55;;;;;;;;;;2057124;28;20178;-57
2021/05/29 01:06:19;;;;;;;24.10;17.38;;;;;;;;;;2057853;28;20221;-56
2021/05/29 01:07:19;;;;;;;24.67;17.08;;;;;;;;;;2057541;28;20284;-56
2021/05/29 01:08:22;;;;;;;21.25;16.25;;;;;;;;;;2054136;28;20263;-57
2021/05/29 01:09:23;;;;;;;22.33;16.15;;;;;;;;;;2057460;28;20581;-58
2021/05/29 01:10:24;;;;;;;21.15;16.27;;;;;;;;;;2056682;28;20170;-56
2021/05/29 01:11:24;;;;;;;24.38;16.38;;;;;;;;;;2054613;28;20182;-58
2021/05/29 01:12:25;;;;;;;23.65;15.68;;;;;;;;;;2056747;28;20178;-58
2021/05/29 01:13:33;;;;;;;23.70;17.50;;;;;;;;;;2055218;28;20206;-60
2021/05/29 01:14:34;;;;;;;21.17;15.00;;;;;;;;;;2057397;28;20258;-55
2021/05/29 01:15:44;;;;;;;19.58;16.25;;;;;;;;;;2056905;28;20186;-56
2021/05/29 01:16:55;;;;;;;20.33;15.35;;;;;;;;;;2057586;28;20182;-55
2021/05/29 01:17:55;;;;;;;24.67;16.92;;;;;;;;;;2048359;29;20676;-57
2021/05/29 01:18:56;;;;;;;20.92;16.40;;;;;;;;;;2048602;29;20175;-56
2021/05/29 01:19:56;;;;;;;21.40;15.45;;;;;;;;;;2057074;28;20190;-56
2021/05/29 01:21:00;;;;;;;27.45;16.30;;;;;;;;;;2057151;28;20575;-55
2021/05/29 01:22:05;;;;;;;25.48;17.58;;;;;;;;;;2058753;28;20194;-58
2021/05/29 01:23:06;;;;;;;22.30;16.60;;;;;;;;;;2048829;29;20283;-57
2021/05/29 01:24:06;;;;;;;26.05;16.05;;;;;;;;;;2047486;28;20263;-57
2021/05/29 01:25:13;;;;;;;23.05;17.20;;;;;;;;;;2057234;28;20259;-56
2021/05/29 01:26:13;;;;;;;20.58;16.73;;;;;;;;;;2056921;28;20213;-56
2021/05/29 01:27:13;;;;;;;23.52;17.70;;;;;;;;;;2056981;28;21929;-55
2021/05/29 01:28:22;;;;;;;24.38;16.88;;;;;;;;;;2057262;28;20537;-57
2021/05/29 01:29:22;;;;;;;24.02;16.55;;;;;;;;;;2053978;28;20182;-58
2021/05/29 01:30:22;;;;;;;19.67;16.85;;;;;;;;;;2053763;28;20347;-57
2021/05/29 01:31:27;;;;;;;25.85;18.73;;;;;;;;;;2057329;28;20205;-58
2021/05/29 01:32:32;;;;;;;28.80;19.90;;;;;;;;;;2057668;28;20174;-58
2021/05/29 01:33:34;;;;;;;36.05;24.60;;;;;;;;;;2057290;28;20210;-57
2021/05/29 01:34:36;;;;;;;28.40;21.15;;;;;;;;;;2057536;28;20178;-54
2021/05/29 01:35:36;;;;;;;22.98;18.20;;;;;;;;;;2057834;28;20186;-55
2021/05/29 01:36:38;;;;;;;24.35;17.90;;;;;;;;;;2057575;28;20261;-54
2021/05/29 01:37:38;;;;;;;21.05;15.82;;;;;;;;;;2053258;28;20205;-56
2021/05/29 01:38:39;;;;;;;22.35;16.95;;;;;;;;;;2057610;28;20257;-59
2021/05/29 01:39:39;;;;;;;22.77;16.65;;;;;;;;;;2052727;28;20260;-58
2021/05/29 01:40:40;;;;;;;22.23;16.98;;;;;;;;;;2057569;28;20221;-59
2021/05/29 01:41:40;;;;;;;23.13;16.88;;;;;;;;;;2057213;28;20202;-55
2021/05/29 01:42:42;;;;;;;20.60;16.90;;;;;;;;;;2048375;28;20179;-57
2021/05/29 01:43:44;;;;;;;23.85;17.27;;;;;;;;;;2049089;28;20179;-58
2021/05/29 01:44:45;;;;;;;22.77;17.15;;;;;;;;;;2047384;29;20178;-56
2021/05/29 01:45:45;;;;;;;20.00;16.77;;;;;;;;;;2044221;29;20171;-55
2021/05/29 01:46:45;;;;;;;19.33;15.95;;;;;;;;;;2048431;28;20206;-58
2021/05/29 01:47:46;;;;;;;24.23;15.95;;;;;;;;;;2055916;28;20285;-57
2021/05/29 01:48:47;;;;;;;24.67;16.35;;;;;;;;;;2054592;28;20178;-55
2021/05/29 01:49:47;;;;;;;24.60;16.63;;;;;;;;;;2052395;28;20190;-56
2021/05/29 01:50:48;;;;;;;23.92;17.02;;;;;;;;;;2045731;29;20215;-55
2021/05/29 01:51:49;;;;;;;22.05;15.80;;;;;;;;;;2044563;28;20253;-54
2021/05/29 01:52:49;;;;;;;21.08;16.10;;;;;;;;;;2053929;28;20670;-53
2021/05/29 01:53:50;;;;;;;23.77;17.45;;;;;;;;;;2056168;28;20188;-56
2021/05/29 01:54:50;;;;;;;24.40;17.50;;;;;;;;;;2053228;28;20183;-55
2021/05/29 01:55:51;;;;;;;23.52;17.98;;;;;;;;;;2055911;28;20174;-58
2021/05/29 01:56:53;;;;;;;23.75;16.98;;;;;;;;;;2056741;28;20178;-56
2021/05/29 01:57:54;;;;;;;22.73;17.23;;;;;;;;;;2056480;28;20257;-58
2021/05/29 01:58:54;;;;;;;25.60;18.02;;;;;;;;;;2056784;28;20221;-58
2021/05/29 01:59:55;;;;;;;25.75;18.23;;;;;;;;;;2056953;28;20186;-58
2021/05/29 02:00:56;;;;;;;21.65;17.00;;;;;;;;;;2047913;29;20602;-56
2021/05/29 02:01:56;;;;;;;24.05;16.83;;;;;;;;;;2048160;29;20286;-57
2021/05/29 02:02:57;;;;;;;22.10;16.58;;;;;;;;;;2054865;28;20229;-56
2021/05/29 02:03:57;;;;;;;23.95;17.65;;;;;;;;;;2054766;28;20158;-59
2021/05/29 02:04:57;;;;;;;25.42;16.88;;;;;;;;;;2057111;28;20178;-55
2021/05/29 02:05:58;;;;;;;24.42;16.85;;;;;;;;;;2048659;29;20238;-58
2021/05/29 02:06:58;;;;;;;21.70;17.15;;;;;;;;;;2039800;29;20183;-56
2021/05/29 02:07:59;;;;;;;22.83;17.55;;;;;;;;;;2044601;29;20259;-57
2021/05/29 02:09:00;;;;;;;28.38;18.42;;;;;;;;;;2053786;28;20253;-57
2021/05/29 02:10:00;;;;;;;24.95;17.88;;;;;;;;;;2056873;28;20166;-56
2021/05/29 02:11:01;;;;;;;23.58;16.25;;;;;;;;;;2048395;29;20185;-57
2021/05/29 02:12:02;;;;;;;25.00;18.77;;;;;;;;;;2047674;29;20178;-53
2021/05/29 02:13:04;;;;;;;26.63;18.35;;;;;;;;;;2047435;29;20203;-57
2021/05/29 02:14:04;;;;;;;23.40;17.42;;;;;;;;;;2048024;29;20674;-56
2021/05/29 02:15:05;;;;;;;24.10;17.20;;;;;;;;;;2048469;29;20250;-59
2021/05/29 02:16:08;;;;;;;27.15;18.48;;;;;;;;;;2054374;28;20166;-58
2021/05/29 02:17:08;;;;;;;27.23;18.35;;;;;;;;;;2056025;28;20206;-56
2021/05/29 02:18:09;;;;;;;25.50;17.80;;;;;;;;;;2056421;28;20252;-54
2021/05/29 02:19:10;;;;;;;28.33;17.85;;;;;;;;;;2047846;29;20176;-58
2021/05/29 02:20:11;;;;;;;25.67;18.08;;;;;;;;;;2048025;29;20841;-55
2021/05/29 02:21:12;;;;;;;24.73;17.85;;;;;;;;;;2048093;28;20171;-58
2021/05/29 02:22:13;;;;;;;25.92;18.65;;;;;;;;;;2055971;28;20182;-56
2021/05/29 02:23:18;;;;;;;28.42;18.25;;;;;;;;;;2047664;29;20698;-58
2021/05/29 02:24:19;;;;;;;20.88;17.48;;;;;;;;;;2048689;28;20155;-55
2021/05/29 02:25:19;;;;;;;27.98;18.55;;;;;;;;;;2054334;28;20658;-58
2021/05/29 02:26:21;;;;;;;26.95;19.23;;;;;;;;;;2057445;28;20596;-58
2021/05/29 02:27:21;;;;;;;28.48;20.50;;;;;;;;;;2055216;28;20202;-55
2021/05/29 02:28:22;;;;;;;30.77;20.75;;;;;;;;;;2056580;28;20249;-57
2021/05/29 02:29:23;;;;;;;27.23;19.15;;;;;;;;;;2054676;28;20179;-57
2021/05/29 02:30:23;;;;;;;31.45;19.13;;;;;;;;;;2056537;28;20170;-57
2021/05/29 02:31:24;;;;;;;31.30;20.05;;;;;;;;;;2054663;28;20194;-56
2021/05/29 02:32:24;;;;;;;34.42;20.40;;;;;;;;;;2056697;28;20237;-55
2021/05/29 02:33:25;;;;;;;31.58;21.55;;;;;;;;;;2055762;28;20337;-58
2021/05/29 02:34:25;;;;;;;29.33;20.80;;;;;;;;;;2056549;28;20163;-56
2021/05/29 02:35:26;;;;;;;30.23;20.63;;;;;;;;;;2054757;28;20186;-57
2021/05/29 02:36:26;;;;;;;31.77;21.58;;;;;;;;;;2048133;29;20174;-57
2021/05/29 02:37:27;;;;;;;32.15;20.88;;;;;;;;;;2039102;29;20200;-58
2021/05/29 02:38:27;;;;;;;32.17;21.77;;;;;;;;;;2047261;29;20181;-57
2021/05/29 02:39:28;;;;;;;34.28;20.60;;;;;;;;;;2055880;28;20177;-56
2021/05/29 02:40:28;;;;;;;28.73;20.58;;;;;;;;;;2056270;28;20182;-59
2021/05/29 02:41:28;;;;;;;31.42;20.05;;;;;;;;;;2055293;28;20187;-58
2021/05/29 02:42:28;;;;;;;29.48;19.65;;;;;;;;;;2057309;28;20281;-58
2021/05/29 02:43:29;;;;;;;33.45;20.40;;;;;;;;;;2057193;28;20232;-59
2021/05/29 02:44:29;;;;;;;32.63;21.02;;;;;;;;;;2054571;28;20321;-55
2021/05/29 02:45:29;;;;;;;29.02;21.15;;;;;;;;;;2050960;28;20215;-57
2021/05/29 02:46:30;;;;;;;31.73;19.48;;;;;;;;;;2056296;28;20192;-56
2021/05/29 02:47:30;;;;;;;32.97;21.05;;;;;;;;;;2054241;28;20253;-57
2021/05/29 02:48:30;;;;;;;30.42;21.75;;;;;;;;;;2055929;28;20181;-56
2021/05/29 02:49:30;;;;;;;29.10;21.30;;;;;;;;;;2056406;28;20286;-60
2021/05/29 02:50:31;;;;;;;30.00;20.52;;;;;;;;;;2055892;28;20273;-57
2021/05/29 02:51:31;;;;;;;29.35;20.15;;;;;;;;;;2055806;28;20337;-59
2021/05/29 02:52:31;;;;;;;31.58;21.67;;;;;;;;;;2055384;28;20250;-57
2021/05/29 02:53:32;;;;;;;37.95;22.45;;;;;;;;;;2056104;28;20201;-56
2021/05/29 02:54:33;;;;;;;31.58;22.55;;;;;;;;;;2055947;28;20210;-57
2021/05/29 02:55:34;;;;;;;33.20;22.33;;;;;;;;;;2056870;28;20844;-54
2021/05/29 02:56:34;;;;;;;36.95;22.67;;;;;;;;;;2056053;28;20190;-61
2021/05/29 02:57:34;;;;;;;38.53;22.73;;;;;;;;;;2056498;28;20194;-58
2021/05/29 02:58:35;;;;;;;38.90;24.15;;;;;;;;;;2047467;29;20281;-58
2021/05/29 02:59:35;;;;;;;38.10;24.83;;;;;;;;;;2047847;29;20242;-56
2021/05/29 03:00:37;;;;;;;38.53;23.77;;;;;;;;;;2048524;29;20225;-54
2021/05/29 03:01:37;;;;;;;37.17;22.80;;;;;;;;;;2047881;28;20175;-55
2021/05/29 03:02:37;;;;;;;38.25;22.95;;;;;;;;;;2057172;28;20266;-54
2021/05/29 03:03:38;;;;;;;34.63;22.25;;;;;;;;;;2055559;28;20182;-56
2021/05/29 03:04:38;;;;;;;35.97;22.58;;;;;;;;;;2056670;28;20201;-54
2021/05/29 03:05:41;;;;;;;35.78;23.63;;;;;;;;;;2054145;28;20229;-59
2021/05/29 03:06:41;;;;;;;31.20;20.85;;;;;;;;;;2055920;28;20182;-55
2021/05/29 03:07:41;;;;;;;29.40;21.35;;;;;;;;;;2055644;28;20724;-55
2021/05/29 03:08:41;;;;;;;33.35;22.25;;;;;;;;;;2055627;28;20261;-57
2021/05/29 03:09:42;;;;;;;37.65;22.92;;;;;;;;;;2056973;28;20643;-55
2021/05/29 03:10:44;;;;;;;37.53;24.27;;;;;;;;;;2053884;28;20181;-54
2021/05/29 03:11:44;;;;;;;35.75;23.77;;;;;;;;;;2056151;28;20190;-55
2021/05/29 03:12:46;;;;;;;41.28;26.08;;;;;;;;;;2058664;28;20170;-58
2021/05/29 03:13:47;;;;;;;36.97;24.10;;;;;;;;;;2060892;28;20202;-56
2021/05/29 03:14:47;;;;;;;41.03;25.42;;;;;;;;;;2060159;28;20209;-58
2021/05/29 03:15:48;;;;;;;40.42;24.45;;;;;;;;;;2059071;28;20194;-55
2021/05/29 03:16:49;;;;;;;47.13;27.15;;;;;;;;;;2057237;28;20214;-60
2021/05/29 03:17:49;;;;;;;42.80;25.35;;;;;;;;;;2051832;29;20562;-58
2021/05/29 03:18:50;;;;;;;44.55;26.63;;;;;;;;;;2050796;29;20181;-58
2021/05/29 03:19:50;;;;;;;41.65;24.80;;;;;;;;;;2057673;28;20182;-60
2021/05/29 03:20:50;;;;;;;39.42;25.35;;;;;;;;;;2055848;28;20185;-63
2021/05/29 03:21:51;;;;;;;41.08;24.23;;;;;;;;;;2056096;28;20269;-61
2021/05/29 03:22:51;;;;;;;42.22;25.75;;;;;;;;;;2056360;28;20270;-61
2021/05/29 03:23:52;;;;;;;39.35;26.38;;;;;;;;;;2057686;28;20560;-59
2021/05/29 03:24:52;;;;;;;39.78;25.67;;;;;;;;;;2056713;28;20750;-59
2021/05/29 03:25:52;;;;;;;39.10;26.13;;;;;;;;;;2049743;29;20186;-62
2021/05/29 03:26:53;;;;;;;37.45;23.73;;;;;;;;;;2049882;29;20945;-58
2021/05/29 03:27:53;;;;;;;40.25;23.13;;;;;;;;;;2060372;28;20233;-58
2021/05/29 03:28:54;;;;;;;39.47;24.90;;;;;;;;;;2060884;28;20638;-59
2021/05/29 03:29:54;;;;;;;37.05;24.55;;;;;;;;;;2061472;28;20178;-58
2021/05/29 03:30:54;;;;;;;37.85;24.10;;;;;;;;;;2061705;28;20281;-57
2021/05/29 03:31:55;;;;;;;33.65;21.85;;;;;;;;;;2061679;28;20193;-59
2021/05/29 03:32:56;;;;;;;38.22;24.98;;;;;;;;;;2061294;28;20604;-58
2021/05/29 03:33:56;;;;;;;32.78;22.27;;;;;;;;;;2061125;28;20229;-59
2021/05/29 03:34:56;;;;;;;40.13;24.60;;;;;;;;;;2061133;28;20261;-60
2021/05/29 03:35:57;;;;;;;38.40;23.83;;;;;;;;;;2061592;28;20179;-59
2021/05/29 03:36:57;;;;;;;47.60;26.67;;;;;;;;;;2060848;28;20177;-58
2021/05/29 03:37:58;;;;;;;37.53;23.73;;;;;;;;;;2052318;29;20624;-55
2021/05/29 03:38:58;;;;;;;37.83;24.75;;;;;;;;;;2051385;28;20167;-55
2021/05/29 03:39:59;;;;;;;44.88;25.30;;;;;;;;;;2054286;29;20197;-58
2021/05/29 03:40:59;;;;;;;39.35;25.40;;;;;;;;;;2056212;29;20702;-59
2021/05/29 03:41:59;;;;;;;33.65;22.85;;;;;;;;;;2056128;29;20190;-59
2021/05/29 03:42:59;;;;;;;39.40;24.13;;;;;;;;;;2065082;28;20241;-59
2021/05/29 03:44:01;;;;;;;33.58;22.30;;;;;;;;;;2056832;29;20195;-60
2021/05/29 03:45:01;;;;;;;36.38;24.88;;;;;;;;;;2056833;28;20208;-59
2021/05/29 03:46:02;;;;;;;40.03;24.77;;;;;;;;;;2065070;28;20180;-60
2021/05/29 03:47:03;;;;;;;36.28;24.25;;;;;;;;;;2065393;28;20182;-61
2021/05/29 03:48:04;;;;;;;36.58;23.83;;;;;;;;;;2063699;28;20221;-60
2021/05/29 03:49:04;;;;;;;38.70;24.33;;;;;;;;;;2059693;28;20807;-60
2021/05/29 03:50:04;;;;;;;36.63;23.35;;;;;;;;;;2062346;28;20182;-60
2021/05/29 03:51:05;;;;;;;39.97;24.58;;;;;;;;;;2062062;28;20456;-59
2021/05/29 03:52:07;;;;;;;38.00;25.05;;;;;;;;;;2063669;28;20190;-58
2021/05/29 03:53:08;;;;;;;37.33;24.38;;;;;;;;;;2062169;28;20182;-59
2021/05/29 03:54:08;;;;;;;35.42;23.40;;;;;;;;;;2063254;28;20190;-58
2021/05/29 03:55:09;;;;;;;36.67;23.88;;;;;;;;;;2063551;28;20555;-59
2021/05/29 03:56:09;;;;;;;36.35;25.65;;;;;;;;;;2062891;28;20189;-58
2021/05/29 03:57:09;;;;;;;40.60;24.98;;;;;;;;;;2061532;28;20178;-59
2021/05/29 03:58:10;;;;;;;44.65;26.10;;;;;;;;;;2059050;28;20179;-57
2021/05/29 03:59:14;;;;;;;42.63;26.58;;;;;;;;;;2058572;28;20241;-56
2021/05/29 04:00:16;;;;;;;37.63;24.42;;;;;;;;;;2050107;29;20233;-58
2021/05/29 04:01:17;;;;;;;39.42;25.20;;;;;;;;;;2050249;28;20542;-56
2021/05/29 04:02:17;;;;;;;38.42;25.35;;;;;;;;;;2058493;28;20176;-59
2021/05/29 04:03:17;;;;;;;36.17;24.08;;;;;;;;;;2049918;29;20203;-58
2021/05/29 04:04:18;;;;;;;43.08;25.90;;;;;;;;;;2049978;29;20194;-56
2021/05/29 04:05:19;;;;;;;45.22;25.17;;;;;;;;;;2058570;28;20664;-59
2021/05/29 04:06:19;;;;;;;38.05;24.63;;;;;;;;;;2058490;28;20174;-56
2021/05/29 04:07:21;;;;;;;41.78;27.13;;;;;;;;;;2049425;28;20191;-56
2021/05/29 04:08:21;;;;;;;43.63;26.98;;;;;;;;;;2049484;28;20187;-59
2021/05/29 04:09:22;;;;;;;47.92;27.70;;;;;;;;;;2057599;28;20189;-57
2021/05/29 04:10:26;;;;;;;40.50;25.60;;;;;;;;;;2055745;28;20190;-56
2021/05/29 04:11:27;;;;;;;46.28;26.85;;;;;;;;;;2057673;28;20169;-59
2021/05/29 04:12:30;;;;;;;39.28;24.92;;;;;;;;;;2054996;28;20194;-58
2021/05/29 04:13:31;;;;;;;44.00;27.90;;;;;;;;;;2058152;28;20293;-58
2021/05/29 04:14:31;;;;;;;43.83;26.98;;;;;;;;;;2058531;28;20174;-54
2021/05/29 04:15:31;;;;;;;44.70;28.55;;;;;;;;;;2054320;28;20186;-54
2021/05/29 04:16:31;;;;;;;43.83;27.02;;;;;;;;;;2057982;28;20673;-56
2021/05/29 04:17:32;;;;;;;48.22;27.63;;;;;;;;;;2056032;28;20216;-55
2021/05/29 04:18:32;;;;;;;45.10;28.15;;;;;;;;;;2057770;28;20182;-59
2021/05/29 04:19:32;;;;;;;43.08;27.77;;;;;;;;;;2053591;28;20190;-57
2021/05/29 04:20:33;;;;;;;43.00;26.13;;;;;;;;;;2057873;28;20183;-55
2021/05/29 04:21:33;;;;;;;42.45;25.58;;;;;;;;;;2057307;28;20189;-59
2021/05/29 04:22:33;;;;;;;41.25;25.83;;;;;;;;;;2058000;28;20198;-58
2021/05/29 04:23:34;;;;;;;38.75;24.23;;;;;;;;;;2056979;28;20634;-58
2021/05/29 04:24:34;;;;;;;39.97;23.77;;;;;;;;;;2057925;28;20530;-59
2021/05/29 04:25:34;;;;;;;39.00;24.98;;;;;;;;;;2057180;28;20217;-57
2021/05/29 04:26:35;;;;;;;37.90;24.25;;;;;;;;;;2057985;28;20193;-56
2021/05/29 04:27:36;;;;;;;36.83;23.48;;;;;;;;;;2054315;28;20209;-59
2021/05/29 04:28:37;;;;;;;37.30;24.50;;;;;;;;;;2057458;28;20182;-58
2021/05/29 04:29:37;;;;;;;35.63;23.58;;;;;;;;;;2057190;28;20673;-59
2021/05/29 04:30:37;;;;;;;37.55;24.25;;;;;;;;;;2056685;28;20171;-57
2021/05/29 04:31:38;;;;;;;38.28;23.92;;;;;;;;;;2049048;29;20189;-58
2021/05/29 04:32:38;;;;;;;33.15;22.20;;;;;;;;;;2049075;29;20650;-57
2021/05/29 04:33:38;;;;;;;35.25;23.80;;;;;;;;;;2056934;28;20275;-59
2021/05/29 04:34:39;;;;;;;35.22;23.65;;;;;;;;;;2056676;28;20317;-58
2021/05/29 04:35:39;;;;;;;31.75;22.35;;;;;;;;;;2058203;28;20174;-58
2021/05/29 04:36:39;;;;;;;32.72;21.80;;;;;;;;;;2056609;28;20261;-57
2021/05/29 04:37:39;;;;;;;33.70;21.83;;;;;;;;;;2056947;28;20217;-58
2021/05/29 04:38:40;;;;;;;28.73;21.13;;;;;;;;;;2056669;28;20536;-58
2021/05/29 04:39:40;;;;;;;28.40;19.38;;;;;;;;;;2056936;28;20182;-56
2021/05/29 04:40:40;;;;;;;28.27;19.10;;;;;;;;;;2048747;29;20179;-57
2021/05/29 04:41:40;;;;;;;23.67;18.20;;;;;;;;;;2048724;29;20175;-57
2021/05/29 04:42:41;;;;;;;24.52;18.02;;;;;;;;;;2057228;28;20187;-56
2021/05/29 04:43:41;;;;;;;23.40;18.48;;;;;;;;;;2057671;28;20229;-58
2021/05/29 04:44:41;;;;;;;23.95;18.50;;;;;;;;;;2054729;28;20216;-59
2021/05/29 04:45:42;;;;;;;21.02;16.75;;;;;;;;;;2052625;28;20432;-56
2021/05/29 04:46:50;;;;;;;25.40;17.92;;;;;;;;;;2054752;28;20236;-59
2021/05/29 04:47:50;;;;;;;25.27;18.02;;;;;;;;;;2062594;23;20343;-66
2021/05/29 04:48:51;;;;;;;21.70;17.35;;;;;;;;;;2053677;28;20222;-65
2021/05/29 04:49:51;;;;;;;23.17;17.60;;;;;;;;;;2058153;28;20827;-66
2021/05/29 04:52:10;;;;;;;21.63;16.70;;;;;;;;;;2058391;28;20185;-66
2021/05/29 04:53:10;;;;;;;21.13;17.05;;;;;;;;;;2052844;28;20266;-66
2021/05/29 04:54:11;;;;;;;24.13;17.10;;;;;;;;;;2059149;28;20235;-66
2021/05/29 04:55:11;;;;;;;26.50;17.83;;;;;;;;;;2060623;28;20187;-66
2021/05/29 04:56:12;;;;;;;22.45;17.65;;;;;;;;;;2060080;28;20222;-65
2021/05/29 04:57:13;;;;;;;22.02;17.52;;;;;;;;;;2059723;28;20190;-66
2021/05/29 04:58:13;;;;;;;20.83;16.33;;;;;;;;;;2056122;28;20265;-68
2021/05/29 04:59:13;;;;;;;19.35;16.05;;;;;;;;;;2051133;28;20624;-67
2021/05/29 05:00:15;;;;;;;24.38;17.10;;;;;;;;;;2063801;28;20185;-67
2021/05/29 05:01:16;;;;;;;25.90;18.40;;;;;;;;;;2058532;28;20178;-67
2021/05/29 05:02:16;;;;;;;21.92;17.27;;;;;;;;;;2057963;28;20236;-67
2021/05/29 05:03:16;;;;;;;20.27;16.73;;;;;;;;;;2050062;29;20168;-67
2021/05/29 05:04:17;;;;;;;22.58;16.08;;;;;;;;;;2046542;29;20546;-67
2021/05/29 05:05:17;;;;;;;21.20;17.13;;;;;;;;;;2056747;28;20182;-67
2021/05/29 05:06:17;;;;;;;20.33;16.15;;;;;;;;;;2046892;28;20238;-67
2021/05/29 05:07:18;;;;;;;21.05;17.42;;;;;;;;;;2044495;28;20305;-67
2021/05/29 05:08:18;;;;;;;22.80;17.50;;;;;;;;;;2052871;28;20190;-66
2021/05/29 05:09:18;;;;;;;19.95;16.35;;;;;;;;;;2056945;28;20165;-67
2021/05/29 05:10:18;;;;;;;23.35;17.05;;;;;;;;;;2049848;28;20270;-67
2021/05/29 05:11:19;;;;;;;21.30;16.05;;;;;;;;;;2057783;28;20197;-66
2021/05/29 05:12:19;;;;;;;22.13;17.38;;;;;;;;;;2054274;28;20605;-66
2021/05/29 05:13:20;;;;;;;18.67;16.20;;;;;;;;;;2054872;28;20171;-66
2021/05/29 05:14:20;;;;;;;22.10;17.42;;;;;;;;;;2043880;28;20606;-66
2021/05/29 05:15:21;;;;;;;21.40;15.70;;;;;;;;;;2048621;29;20681;-66
2021/05/29 05:16:21;;;;;;;23.17;16.30;;;;;;;;;;2057412;28;20232;-67
2021/05/29 05:17:21;;;;;;;21.60;16.40;;;;;;;;;;2057579;28;20253;-66
2021/05/29 05:18:22;;;;;;;22.05;16.95;;;;;;;;;;2052135;28;20265;-66
2021/05/29 05:19:22;;;;;;;23.13;17.67;;;;;;;;;;2057457;28;20182;-66
2021/05/29 05:20:23;;;;;;;22.83;16.98;;;;;;;;;;2057122;28;20174;-66
2021/05/29 05:21:23;;;;;;;24.00;17.83;;;;;;;;;;2056515;28;20158;-66
2021/05/29 05:22:23;;;;;;;20.40;17.25;;;;;;;;;;2053743;28;20198;-66
2021/05/29 05:23:24;;;;;;;22.95;17.58;;;;;;;;;;2057477;28;20221;-66
2021/05/29 05:24:24;;;;;;;21.20;17.42;;;;;;;;;;2056685;28;20174;-67
2021/05/29 05:25:27;;;;;;;21.58;16.40;;;;;;;;;;2051188;28;20225;-65
2021/05/29 05:26:27;;;;;;;20.55;16.70;;;;;;;;;;2056282;28;20189;-66
2021/05/29 05:27:27;;;;;;;21.38;17.08;;;;;;;;;;2052266;28;20266;-66
2021/05/29 05:28:29;;;;;;;19.38;15.82;;;;;;;;;;2048270;29;20233;-66
2021/05/29 05:29:29;;;;;;;22.10;16.52;;;;;;;;;;2051692;28;20178;-66
2021/05/29 05:30:29;;;;;;;19.00;16.20;;;;;;;;;;2056890;28;20212;-66
2021/05/29 05:31:30;;;;;;;25.10;17.17;;;;;;;;;;2047981;29;20248;-66
2021/05/29 05:32:31;;;;;;;23.27;17.65;;;;;;;;;;2049020;28;20175;-66
2021/05/29 05:33:33;;;;;;;21.42;16.70;;;;;;;;;;2057575;28;20213;-67
2021/05/29 05:34:34;;;;;;;21.85;17.27;;;;;;;;;;2049019;29;20189;-67
2021/05/29 05:35:34;;;;;;;21.55;16.33;;;;;;;;;;2047297;29;20663;-67
2021/05/29 05:36:36;;;;;;;23.80;16.95;;;;;;;;;;2057757;28;20170;-67
2021/05/29 05:37:36;;;;;;;20.73;16.42;;;;;;;;;;2049525;28;21591;-67
2021/05/29 05:38:37;;;;;;;20.33;16.83;;;;;;;;;;2050820;28;20186;-66
2021/05/29 05:39:37;;;;;;;21.27;16.92;;;;;;;;;;2049278;28;20569;-67
2021/05/29 05:40:38;;;;;;;22.80;18.35;;;;;;;;;;2043170;29;20675;-67
2021/05/29 05:41:38;;;;;;;23.98;17.13;;;;;;;;;;2046672;29;20669;-66
2021/05/29 05:42:38;;;;;;;20.88;17.75;;;;;;;;;;2057680;28;20690;-67
2021/05/29 05:43:39;;;;;;;25.05;17.83;;;;;;;;;;2046427;29;20267;-67
2021/05/29 05:44:39;;;;;;;23.10;17.42;;;;;;;;;;2049074;28;20655;-67
2021/05/29 05:45:39;;;;;;;23.30;17.70;;;;;;;;;;2055082;28;20214;-67
2021/05/29 05:46:40;;;;;;;19.45;15.73;;;;;;;;;;2057433;28;20201;-68
2021/05/29 05:47:40;;;;;;;20.60;16.95;;;;;;;;;;2042478;28;20227;-67
2021/05/29 05:48:40;;;;;;;19.95;15.73;;;;;;;;;;2040131;29;20275;-65
2021/05/29 05:49:40;;;;;;;19.40;15.77;;;;;;;;;;2048519;29;20199;-67
2021/05/29 05:50:55;;;;;;;17.77;15.80;;;;;;;;;;2053460;28;20195;-67
2021/05/29 05:51:55;;;;;;;18.75;15.73;;;;;;;;;;2053854;28;20154;-67
2021/05/29 05:52:56;;;;;;;20.92;16.20;;;;;;;;;;2055409;28;20240;-67
2021/05/29 05:53:57;;;;;;;18.25;14.32;;;;;;;;;;2057368;28;20198;-67
2021/05/29 05:54:57;;;;;;;21.60;16.77;;;;;;;;;;2055718;28;20198;-67